Time;durP1;ratioP1;P1;durP2;ratioP2;P2;SDS_P1;SDS_P2;PMS_P1;PMS_P2;Temp;Humidity;BMP_temperature;BMP_pressure;BME280_temperature;BME280_humidity;BME280_pressure;Samples;Min_cycle;Max_cycle;Signal;HPM_P1;HPM_P2
2022/03/04 00:01:15;;;;;;;;;;;2.70;52.80;;;;;;5034471;28;19952;-74
2022/03/04 00:03:42;;;;;;;;;;;3.00;52.00;;;;;;5033008;28;19932;-72
2022/03/04 00:06:09;;;;;;;;;;;2.90;51.70;;;;;;5014979;28;19926;-72
2022/03/04 00:08:37;;;;;;;;;;;2.90;51.80;;;;;;5014748;28;20064;-72
2022/03/04 00:11:04;;;;;;;;;;;3.00;51.50;;;;;;5031264;28;20395;-72
2022/03/04 00:13:31;;;;;;;;;;;3.00;51.30;;;;;;5033099;28;19925;-73
2022/03/04 00:15:58;;;;;;;;;;;3.00;51.30;;;;;;5033195;28;19931;-73
2022/03/04 00:18:26;;;;;;;;;;;3.10;51.40;;;;;;5033027;28;19979;-72
2022/03/04 00:20:53;;;;;;;;;;;3.10;51.30;;;;;;5031725;28;20364;-73
2022/03/04 00:23:19;;;;;;;;;;;3.10;51.20;;;;;;5033139;28;20395;-73
2022/03/04 00:25:47;;;;;;;;;;;3.10;51.50;;;;;;5031467;28;19932;-73
2022/03/04 00:28:14;;;;;;;;;;;3.10;51.40;;;;;;5033448;28;19925;-73
2022/03/04 00:30:41;;;;;;;;;;;3.10;51.40;;;;;;5029901;28;20019;-73
2022/03/04 00:33:08;;;;;;;;;;;3.00;51.60;;;;;;5033049;28;20384;-73
2022/03/04 00:35:34;;;;;;;;;;;3.00;51.80;;;;;;5031366;28;19931;-73
2022/03/04 00:38:01;;;;;;;;;;;3.00;52.00;;;;;;5032641;28;19932;-73
2022/03/04 00:40:28;;;;;;;;;;;2.90;52.40;;;;;;5030525;28;19925;-73
2022/03/04 00:42:56;;;;;;;;;;;2.90;52.60;;;;;;5032962;28;20023;-73
2022/03/04 00:45:22;;;;;;;;;;;2.90;52.90;;;;;;5031364;28;19925;-73
2022/03/04 00:47:49;;;;;;;;;;;2.80;53.20;;;;;;5032977;28;20003;-73
2022/03/04 00:50:16;;;;;;;;;;;2.70;53.40;;;;;;5031214;28;19947;-74
2022/03/04 00:52:42;;;;;;;;;;;2.70;53.80;;;;;;5032693;28;19925;-73
2022/03/04 00:55:09;;;;;;;;;;;2.60;54.00;;;;;;5031078;28;19976;-73
2022/03/04 00:57:36;;;;;;;;;;;2.60;54.30;;;;;;5032689;28;19925;-73
2022/03/04 01:00:05;;;;;;;;;;;2.50;54.70;;;;;;5030244;28;20296;-73
2022/03/04 01:02:32;;;;;;;;;;;2.50;55.00;;;;;;5033008;28;19925;-73
2022/03/04 01:04:59;;;;;;;;;;;2.50;55.30;;;;;;5031251;28;19929;-73
2022/03/04 01:07:25;;;;;;;;;;;2.40;55.50;;;;;;5033060;28;19933;-73
2022/03/04 01:09:52;;;;;;;;;;;2.40;55.80;;;;;;5031176;28;19925;-73
2022/03/04 01:12:19;;;;;;;;;;;2.30;56.10;;;;;;5032302;28;19936;-73
2022/03/04 01:14:46;;;;;;;;;;;2.30;56.40;;;;;;5031048;28;19932;-73
2022/03/04 01:17:14;;;;;;;;;;;2.30;56.70;;;;;;5032853;28;19951;-75
2022/03/04 01:19:40;;;;;;;;;;;2.20;57.00;;;;;;5031092;28;19925;-73
2022/03/04 01:22:07;;;;;;;;;;;2.20;57.40;;;;;;5032577;28;19925;-72
2022/03/04 01:24:34;;;;;;;;;;;2.20;57.80;;;;;;5030801;28;19925;-73
2022/03/04 01:27:00;;;;;;;;;;;2.10;58.10;;;;;;5032365;28;20430;-73
2022/03/04 01:29:27;;;;;;;;;;;2.10;58.50;;;;;;5030563;28;20362;-73
2022/03/04 01:31:53;;;;;;;;;;;2.10;58.70;;;;;;5032566;28;19931;-73
2022/03/04 01:34:22;;;;;;;;;;;2.10;59.00;;;;;;5028177;28;19926;-73
2022/03/04 01:36:48;;;;;;;;;;;2.10;59.30;;;;;;5033988;28;19925;-73
2022/03/04 01:39:15;;;;;;;;;;;2.10;59.70;;;;;;5032717;28;19932;-73
2022/03/04 01:41:41;;;;;;;;;;;2.00;60.00;;;;;;5034259;28;19925;-73
2022/03/04 01:44:08;;;;;;;;;;;2.00;60.30;;;;;;5032725;28;19931;-73
2022/03/04 01:46:35;;;;;;;;;;;2.00;60.80;;;;;;5034734;28;19925;-73
2022/03/04 01:49:02;;;;;;;;;;;2.00;61.30;;;;;;5033301;28;19952;-73
2022/03/04 01:51:30;;;;;;;;;;;1.90;61.60;;;;;;5036037;28;20400;-73
2022/03/04 01:53:59;;;;;;;;;;;1.80;62.00;;;;;;5035969;28;20012;-72
2022/03/04 01:56:26;;;;;;;;;;;1.80;62.70;;;;;;5037879;28;19929;-72
2022/03/04 01:58:52;;;;;;;;;;;1.80;62.80;;;;;;5035949;28;19965;-72
2022/03/04 02:01:19;;;;;;;;;;;1.80;63.20;;;;;;5037113;28;19929;-72
2022/03/04 02:03:46;;;;;;;;;;;1.80;63.70;;;;;;5033871;28;20490;-72
2022/03/04 02:06:12;;;;;;;;;;;1.80;64.10;;;;;;5035966;28;20023;-72
2022/03/04 02:08:40;;;;;;;;;;;1.70;64.50;;;;;;5036156;28;19935;-71
2022/03/04 02:11:07;;;;;;;;;;;1.70;64.90;;;;;;5036998;28;19926;-72
2022/03/04 02:13:34;;;;;;;;;;;1.70;65.20;;;;;;5035357;28;19925;-72
2022/03/04 02:16:01;;;;;;;;;;;1.40;65.30;;;;;;5035108;28;19925;-72
2022/03/04 02:18:27;;;;;;;;;;;1.70;66.10;;;;;;5035222;28;19925;-72
2022/03/04 02:20:55;;;;;;;;;;;1.60;66.30;;;;;;5033895;28;20028;-72
2022/03/04 02:23:23;;;;;;;;;;;1.60;66.70;;;;;;5035334;28;19925;-72
2022/03/04 02:25:50;;;;;;;;;;;1.50;66.80;;;;;;5033807;28;19929;-72
2022/03/04 02:28:17;;;;;;;;;;;1.50;66.80;;;;;;5035458;28;19925;-72
2022/03/04 02:30:44;;;;;;;;;;;1.50;67.00;;;;;;5033599;28;19925;-72
2022/03/04 02:33:11;;;;;;;;;;;1.50;67.40;;;;;;5038683;28;20408;-73
2022/03/04 02:35:40;;;;;;;;;;;1.50;67.50;;;;;;5041156;28;19925;-73
2022/03/04 02:38:06;;;;;;;;;;;1.50;67.60;;;;;;5041891;28;19936;-73
2022/03/04 02:40:34;;;;;;;;;;;1.50;67.60;;;;;;5039977;28;19972;-75
2022/03/04 02:43:01;;;;;;;;;;;1.50;67.40;;;;;;5041037;28;20019;-73
2022/03/04 02:45:28;;;;;;;;;;;1.50;67.30;;;;;;5035030;28;19932;-73
2022/03/04 02:47:54;;;;;;;;;;;1.50;67.20;;;;;;5029624;28;19980;-72
2022/03/04 02:50:21;;;;;;;;;;;1.50;67.10;;;;;;5034001;28;20015;-72
2022/03/04 02:52:48;;;;;;;;;;;1.50;67.10;;;;;;5035772;28;19925;-72
2022/03/04 02:55:14;;;;;;;;;;;1.40;67.00;;;;;;5033475;28;19925;-72
2022/03/04 02:57:44;;;;;;;;;;;1.40;67.30;;;;;;5036761;28;19925;-72
2022/03/04 03:00:11;;;;;;;;;;;1.40;67.10;;;;;;5033885;28;19931;-72
2022/03/04 03:02:38;;;;;;;;;;;1.40;67.20;;;;;;5035596;28;19925;-72
2022/03/04 03:05:05;;;;;;;;;;;1.40;67.20;;;;;;5034093;28;19929;-72
2022/03/04 03:07:32;;;;;;;;;;;1.30;67.30;;;;;;5034638;28;19925;-72
2022/03/04 03:09:59;;;;;;;;;;;1.30;67.50;;;;;;5034726;28;20020;-72
2022/03/04 03:12:26;;;;;;;;;;;1.30;67.80;;;;;;5034550;28;19972;-72
2022/03/04 03:14:54;;;;;;;;;;;1.20;67.80;;;;;;5032364;28;19948;-72
2022/03/04 03:17:21;;;;;;;;;;;1.20;67.90;;;;;;5034208;28;19983;-72
2022/03/04 03:19:47;;;;;;;;;;;1.20;68.30;;;;;;5032425;28;19925;-72
2022/03/04 03:22:16;;;;;;;;;;;1.20;68.20;;;;;;5033751;28;20403;-73
2022/03/04 03:24:43;;;;;;;;;;;1.20;68.50;;;;;;5032724;28;19925;-72
2022/03/04 03:27:09;;;;;;;;;;;1.20;68.50;;;;;;5034288;28;20304;-72
2022/03/04 03:29:36;;;;;;;;;;;1.10;68.70;;;;;;5032910;28;19925;-72
2022/03/04 03:32:05;;;;;;;;;;;1.10;69.00;;;;;;5033153;28;19932;-72
2022/03/04 03:34:31;;;;;;;;;;;1.10;69.30;;;;;;5032654;28;19932;-72
2022/03/04 03:36:58;;;;;;;;;;;1.00;69.10;;;;;;5034174;28;19925;-72
2022/03/04 03:39:25;;;;;;;;;;;1.00;69.20;;;;;;5032212;28;19925;-73
2022/03/04 03:41:51;;;;;;;;;;;1.00;69.60;;;;;;5034018;28;19935;-72
2022/03/04 03:44:18;;;;;;;;;;;1.00;69.40;;;;;;5031786;28;19925;-72
2022/03/04 03:46:45;;;;;;;;;;;1.00;69.60;;;;;;5033726;28;20019;-72
2022/03/04 03:49:13;;;;;;;;;;;1.00;69.50;;;;;;5032097;28;20004;-72
2022/03/04 03:51:40;;;;;;;;;;;1.00;69.50;;;;;;5032732;28;19941;-72
2022/03/04 03:54:06;;;;;;;;;;;0.90;69.50;;;;;;5033672;28;20295;-75
2022/03/04 03:56:33;;;;;;;;;;;0.90;69.70;;;;;;5035302;28;20384;-72
2022/03/04 03:59:00;;;;;;;;;;;1.00;69.40;;;;;;5033260;28;19925;-75
2022/03/04 04:01:26;;;;;;;;;;;1.00;69.00;;;;;;5034102;28;20348;-72
2022/03/04 04:03:53;;;;;;;;;;;1.00;68.90;;;;;;5033497;28;19928;-73
2022/03/04 04:06:21;;;;;;;;;;;1.00;68.90;;;;;;5034987;28;20015;-75
2022/03/04 04:08:48;;;;;;;;;;;1.00;69.00;;;;;;5032698;28;20012;-73
2022/03/04 04:11:14;;;;;;;;;;;1.00;69.20;;;;;;5034174;28;19929;-71
2022/03/04 04:13:41;;;;;;;;;;;1.00;69.50;;;;;;5031757;28;19925;-71
2022/03/04 04:16:08;;;;;;;;;;;1.00;69.60;;;;;;5033678;28;19965;-72
2022/03/04 04:18:35;;;;;;;;;;;1.00;69.80;;;;;;5033005;28;19972;-72
2022/03/04 04:21:02;;;;;;;;;;;0.90;69.90;;;;;;5033034;28;19925;-72
2022/03/04 04:23:30;;;;;;;;;;;0.90;70.20;;;;;;5033923;28;19975;-72
2022/03/04 04:25:57;;;;;;;;;;;0.90;71.10;;;;;;5031069;28;20443;-72
2022/03/04 04:28:25;;;;;;;;;;;0.90;70.70;;;;;;5034333;28;19925;-71
2022/03/04 04:30:52;;;;;;;;;;;0.80;70.60;;;;;;5031815;28;19943;-71
2022/03/04 04:33:18;;;;;;;;;;;0.80;70.80;;;;;;5034348;28;20285;-72
2022/03/04 04:35:45;;;;;;;;;;;0.80;71.10;;;;;;5033621;28;20448;-72
2022/03/04 04:38:12;;;;;;;;;;;0.80;71.40;;;;;;5034435;28;19931;-72
2022/03/04 04:40:40;;;;;;;;;;;0.80;71.30;;;;;;5034863;28;20020;-72
2022/03/04 04:43:06;;;;;;;;;;;0.80;71.50;;;;;;5039762;28;19933;-76
2022/03/04 04:45:33;;;;;;;;;;;0.80;71.50;;;;;;5037717;28;19925;-72
2022/03/04 04:48:00;;;;;;;;;;;0.80;71.70;;;;;;5037490;28;19929;-72
2022/03/04 04:50:27;;;;;;;;;;;0.80;71.60;;;;;;5034774;28;19948;-72
2022/03/04 04:52:53;;;;;;;;;;;0.80;71.70;;;;;;5036151;28;20334;-72
2022/03/04 04:55:20;;;;;;;;;;;0.80;71.60;;;;;;5033675;28;19929;-72
2022/03/04 04:57:48;;;;;;;;;;;0.80;71.90;;;;;;5034392;28;19972;-72
2022/03/04 05:00:15;;;;;;;;;;;0.80;71.90;;;;;;5034170;28;19984;-72
2022/03/04 05:02:42;;;;;;;;;;;0.70;72.00;;;;;;5033709;28;19937;-73
2022/03/04 05:05:09;;;;;;;;;;;0.70;72.00;;;;;;5034509;28;19931;-72
2022/03/04 05:07:35;;;;;;;;;;;0.70;72.10;;;;;;5036466;28;19953;-72
2022/03/04 05:10:02;;;;;;;;;;;0.70;72.00;;;;;;5032797;28;19948;-73
2022/03/04 05:12:29;;;;;;;;;;;0.70;72.10;;;;;;5034211;28;19984;-72
2022/03/04 05:14:57;;;;;;;;;;;0.70;72.20;;;;;;5031788;28;19925;-72
2022/03/04 05:17:24;;;;;;;;;;;0.70;72.30;;;;;;5032864;28;19932;-72
2022/03/04 05:19:51;;;;;;;;;;;1.00;73.00;;;;;;5031173;28;20015;-71
2022/03/04 05:22:17;;;;;;;;;;;0.60;72.80;;;;;;5033271;28;19931;-72
2022/03/04 05:24:44;;;;;;;;;;;0.60;73.00;;;;;;5031028;28;19929;-72
2022/03/04 05:27:11;;;;;;;;;;;0.70;73.10;;;;;;5036399;28;19925;-72
2022/03/04 05:29:38;;;;;;;;;;;0.70;73.30;;;;;;5035362;28;20118;-72
2022/03/04 05:32:06;;;;;;;;;;;0.60;73.40;;;;;;5036061;28;20265;-72
2022/03/04 05:34:33;;;;;;;;;;;0.60;73.40;;;;;;5034459;28;19925;-72
2022/03/04 05:37:00;;;;;;;;;;;0.70;73.40;;;;;;5036456;28;19925;-72
2022/03/04 05:39:26;;;;;;;;;;;0.60;73.50;;;;;;5034694;28;19925;-72
2022/03/04 05:41:53;;;;;;;;;;;0.60;73.80;;;;;;5035384;28;20028;-72
2022/03/04 05:44:20;;;;;;;;;;;0.60;73.80;;;;;;5034319;28;19932;-72
2022/03/04 05:46:46;;;;;;;;;;;0.60;73.90;;;;;;5036241;28;19947;-72
2022/03/04 05:49:14;;;;;;;;;;;0.50;73.90;;;;;;5032316;28;20394;-74
2022/03/04 05:51:41;;;;;;;;;;;0.50;74.10;;;;;;5035940;28;19932;-72
2022/03/04 05:54:08;;;;;;;;;;;0.50;74.70;;;;;;5034518;28;19925;-73
2022/03/04 05:56:35;;;;;;;;;;;0.40;75.00;;;;;;5035897;28;19929;-72
2022/03/04 05:59:02;;;;;;;;;;;0.40;75.00;;;;;;5034950;28;19932;-72
2022/03/04 06:01:28;;;;;;;;;;;0.40;75.30;;;;;;5036635;28;19925;-72
2022/03/04 06:03:55;;;;;;;;;;;0.30;75.40;;;;;;5034207;28;19930;-73
2022/03/04 06:06:25;;;;;;;;;;;0.40;76.10;;;;;;5036391;28;19963;-72
2022/03/04 06:08:51;;;;;;;;;;;0.30;76.00;;;;;;5035970;28;20241;-72
2022/03/04 06:11:19;;;;;;;;;;;0.40;76.40;;;;;;5038958;28;19931;-72
2022/03/04 06:13:45;;;;;;;;;;;0.30;76.60;;;;;;5035913;28;19925;-72
2022/03/04 06:16:12;;;;;;;;;;;0.40;77.00;;;;;;5036113;28;19925;-72
2022/03/04 06:18:39;;;;;;;;;;;0.30;77.40;;;;;;5033762;28;19933;-72
2022/03/04 06:21:06;;;;;;;;;;;0.20;77.50;;;;;;5035694;28;19932;-72
2022/03/04 06:23:34;;;;;;;;;;;0.30;77.60;;;;;;5034871;28;19971;-72
2022/03/04 06:26:00;;;;;;;;;;;0.20;77.70;;;;;;5034249;28;20400;-71
2022/03/04 06:28:27;;;;;;;;;;;0.20;77.90;;;;;;5035624;28;19965;-73
2022/03/04 06:30:54;;;;;;;;;;;0.30;78.50;;;;;;5032574;28;19931;-72
2022/03/04 06:33:35;;;;;;;;;;;0.20;78.30;;;;;;5034020;28;19936;-72
2022/03/04 06:36:03;;;;;;;;;;;0.20;78.30;;;;;;5031227;28;19925;-72
2022/03/04 06:38:30;;;;;;;;;;;0.30;78.70;;;;;;5035042;28;19949;-71
2022/03/04 06:40:59;;;;;;;;;;;0.30;79.10;;;;;;5033791;28;20020;-72
2022/03/04 06:43:26;;;;;;;;;;;0.20;79.20;;;;;;5035227;28;20011;-71
2022/03/04 06:45:53;;;;;;;;;;;0.30;79.10;;;;;;5033362;28;19976;-71
2022/03/04 06:48:21;;;;;;;;;;;0.30;79.30;;;;;;5035308;28;19925;-71
2022/03/04 06:50:48;;;;;;;;;;;0.30;79.10;;;;;;5033453;28;20389;-72
2022/03/04 06:53:15;;;;;;;;;;;0.40;79.30;;;;;;5035176;28;20478;-72
2022/03/04 06:55:42;;;;;;;;;;;0.40;79.20;;;;;;5033370;28;19925;-72
2022/03/04 06:58:10;;;;;;;;;;;0.40;79.10;;;;;;5035332;28;20026;-72
2022/03/04 07:00:37;;;;;;;;;;;0.40;78.90;;;;;;5032151;28;19925;-72
2022/03/04 07:03:04;;;;;;;;;;;0.50;79.10;;;;;;5034803;28;19929;-72
2022/03/04 07:05:31;;;;;;;;;;;0.50;79.00;;;;;;5032676;28;20394;-71
2022/03/04 07:07:57;;;;;;;;;;;0.50;78.90;;;;;;5034984;28;20287;-71
2022/03/04 07:10:24;;;;;;;;;;;0.50;78.80;;;;;;5032538;28;19932;-71
2022/03/04 07:12:52;;;;;;;;;;;0.60;78.80;;;;;;5035361;28;19929;-71
2022/03/04 07:15:20;;;;;;;;;;;0.60;78.60;;;;;;5032879;28;19925;-70
2022/03/04 07:17:47;;;;;;;;;;;0.70;78.30;;;;;;5035810;28;19925;-71
2022/03/04 07:20:14;;;;;;;;;;;0.80;78.20;;;;;;5032448;28;19925;-71
2022/03/04 07:22:42;;;;;;;;;;;0.80;78.60;;;;;;5034789;28;19947;-72
2022/03/04 07:25:10;;;;;;;;;;;0.80;78.20;;;;;;5031638;28;20419;-71
2022/03/04 07:27:37;;;;;;;;;;;0.80;78.20;;;;;;5031626;28;19947;-72
2022/03/04 07:30:05;;;;;;;;;;;0.90;78.00;;;;;;5030177;28;19968;-73
2022/03/04 07:32:33;;;;;;;;;;;1.00;77.80;;;;;;5030023;28;19948;-71
2022/03/04 07:35:00;;;;;;;;;;;1.00;77.80;;;;;;5031022;28;20025;-72
2022/03/04 07:37:27;;;;;;;;;;;1.10;77.30;;;;;;5031019;28;19987;-72
2022/03/04 07:39:53;;;;;;;;;;;1.10;77.30;;;;;;5031695;28;19925;-73
2022/03/04 07:42:21;;;;;;;;;;;1.20;77.20;;;;;;5033829;28;19932;-72
2022/03/04 07:44:47;;;;;;;;;;;1.20;77.10;;;;;;5032156;28;19925;-72
2022/03/04 07:47:14;;;;;;;;;;;1.30;77.00;;;;;;5033972;28;19925;-72
2022/03/04 07:49:42;;;;;;;;;;;1.30;76.80;;;;;;5032911;28;20411;-71
2022/03/04 07:52:09;;;;;;;;;;;1.40;76.70;;;;;;5032959;28;19932;-73
2022/03/04 07:54:36;;;;;;;;;;;1.40;76.20;;;;;;5032691;28;19925;-72
2022/03/04 07:57:03;;;;;;;;;;;1.50;75.90;;;;;;5034715;28;20392;-72
2022/03/04 07:59:30;;;;;;;;;;;1.70;75.90;;;;;;5031999;28;20021;-71
2022/03/04 08:01:56;;;;;;;;;;;1.70;75.30;;;;;;5032348;28;20368;-72
2022/03/04 08:04:23;;;;;;;;;;;1.90;75.60;;;;;;5031374;28;20428;-73
2022/03/04 08:06:51;;;;;;;;;;;2.00;75.00;;;;;;5033521;28;19979;-72
2022/03/04 08:09:18;;;;;;;;;;;2.10;74.70;;;;;;5031768;28;20343;-73
2022/03/04 08:11:46;;;;;;;;;;;3.60;74.00;;;;;;5030582;28;20277;-73
2022/03/04 08:14:13;;;;;;;;;;;6.20;62.60;;;;;;5031363;28;19975;-72
2022/03/04 08:16:40;;;;;;;;;;;8.40;51.00;;;;;;5030604;28;20007;-71
2022/03/04 08:19:06;;;;;;;;;;;9.70;42.10;;;;;;5031797;28;20012;-71
2022/03/04 08:21:33;;;;;;;;;;;10.50;37.10;;;;;;5033675;28;19925;-71
2022/03/04 08:24:01;;;;;;;;;;;11.40;32.90;;;;;;5028622;28;20012;-70
2022/03/04 08:26:28;;;;;;;;;;;12.10;31.00;;;;;;5033467;28;19987;-72
2022/03/04 08:28:56;;;;;;;;;;;11.80;28.70;;;;;;5028414;28;20147;-73
2022/03/04 08:31:23;;;;;;;;;;;10.90;29.40;;;;;;5033517;28;19972;-72
2022/03/04 08:33:49;;;;;;;;;;;9.60;32.80;;;;;;5031132;28;19925;-73
2022/03/04 08:36:16;;;;;;;;;;;8.20;36.00;;;;;;5035991;28;19925;-73
2022/03/04 08:38:43;;;;;;;;;;;7.80;38.10;;;;;;5034864;28;19925;-74
2022/03/04 08:41:11;;;;;;;;;;;8.50;37.80;;;;;;5032826;28;19925;-76
2022/03/04 08:43:38;;;;;;;;;;;8.70;36.60;;;;;;5031831;28;20019;-72
2022/03/04 08:46:05;;;;;;;;;;;9.30;34.40;;;;;;5033703;28;20307;-73
2022/03/04 08:48:32;;;;;;;;;;;8.60;36.60;;;;;;5034177;28;19972;-73
2022/03/04 08:50:58;;;;;;;;;;;8.80;37.20;;;;;;5032844;28;20075;-74
2022/03/04 08:53:27;;;;;;;;;;;8.70;35.50;;;;;;5032916;28;20023;-72
2022/03/04 08:55:55;;;;;;;;;;;8.80;34.60;;;;;;5031379;28;20233;-73
2022/03/04 08:58:23;;;;;;;;;;;9.30;33.50;;;;;;5035031;28;20392;-73
2022/03/04 09:00:49;;;;;;;;;;;9.60;33.70;;;;;;5029879;28;19932;-74
2022/03/04 09:03:16;;;;;;;;;;;9.80;33.30;;;;;;5030962;28;20000;-73
2022/03/04 09:05:43;;;;;;;;;;;11.30;29.60;;;;;;5030940;28;19926;-72
2022/03/04 09:08:09;;;;;;;;;;;12.30;27.60;;;;;;5030324;28;19925;-75
2022/03/04 09:10:36;;;;;;;;;;;13.30;25.40;;;;;;5030607;28;20020;-72
2022/03/04 09:13:04;;;;;;;;;;;13.70;23.20;;;;;;5029923;28;19925;-72
2022/03/04 09:15:32;;;;;;;;;;;13.60;22.70;;;;;;5031551;28;19929;-72
2022/03/04 09:17:59;;;;;;;;;;;14.30;21.90;;;;;;5029956;28;19925;-72
2022/03/04 09:20:26;;;;;;;;;;;13.80;22.40;;;;;;5030985;28;20004;-72
2022/03/04 09:22:53;;;;;;;;;;;13.20;22.40;;;;;;5025677;28;20248;-74
2022/03/04 09:25:20;;;;;;;;;;;12.10;23.70;;;;;;5031966;28;20376;-73
2022/03/04 09:27:48;;;;;;;;;;;11.20;25.50;;;;;;5030843;28;19952;-74
2022/03/04 09:30:15;;;;;;;;;;;11.80;25.70;;;;;;5032502;28;19952;-73
2022/03/04 09:32:43;;;;;;;;;;;12.40;23.90;;;;;;5029869;28;20340;-73
2022/03/04 09:35:10;;;;;;;;;;;13.20;23.40;;;;;;5030969;28;19926;-72
2022/03/04 09:37:37;;;;;;;;;;;14.40;21.10;;;;;;5029893;28;19925;-74
2022/03/04 09:40:04;;;;;;;;;;;14.70;20.30;;;;;;5031847;28;19992;-74
2022/03/04 09:42:30;;;;;;;;;;;14.50;19.60;;;;;;5031681;28;19971;-72
2022/03/04 09:44:57;;;;;;;;;;;11.60;23.10;;;;;;5030128;28;19932;-73
2022/03/04 09:47:24;;;;;;;;;;;10.90;25.10;;;;;;5029180;28;19969;-72
2022/03/04 09:49:53;;;;;;;;;;;9.90;27.80;;;;;;5030028;28;19929;-73
2022/03/04 09:52:20;;;;;;;;;;;8.90;30.00;;;;;;5028284;28;19925;-72
2022/03/04 09:54:48;;;;;;;;;;;7.90;33.40;;;;;;5030150;28;19940;-72
2022/03/04 09:57:14;;;;;;;;;;;7.70;33.90;;;;;;5029127;28;20016;-72
2022/03/04 09:59:41;;;;;;;;;;;7.40;36.00;;;;;;5029893;28;19925;-72
2022/03/04 10:02:08;;;;;;;;;;;7.20;36.20;;;;;;5028578;28;19925;-72
2022/03/04 10:04:35;;;;;;;;;;;7.30;35.50;;;;;;5030207;28;20291;-71
2022/03/04 10:07:10;;;;;;;;;;;7.30;36.90;;;;;;5031909;28;19925;-74
2022/03/04 10:09:37;;;;;;;;;;;7.40;36.90;;;;;;5026204;28;19932;-72
2022/03/04 10:12:05;;;;;;;;;;;7.60;36.80;;;;;;5032855;28;20382;-71
2022/03/04 10:14:31;;;;;;;;;;;7.50;37.30;;;;;;5035058;28;20028;-72
2022/03/04 10:16:58;;;;;;;;;;;7.60;37.10;;;;;;5034853;28;20480;-72
2022/03/04 10:19:25;;;;;;;;;;;7.90;34.60;;;;;;5035081;28;19932;-72
2022/03/04 10:21:53;;;;;;;;;;;7.90;35.40;;;;;;5035192;28;20012;-72
2022/03/04 10:24:22;;;;;;;;;;;8.00;35.50;;;;;;5035155;28;20311;-72
2022/03/04 10:26:57;;;;;;;;;;;8.10;34.50;;;;;;5035681;28;20415;-72
2022/03/04 10:29:25;;;;;;;;;;;8.10;35.10;;;;;;5034366;28;19925;-72
2022/03/04 10:32:15;;;;;;;;;;;8.30;35.80;;;;;;5031528;28;19925;-72
2022/03/04 10:34:43;;;;;;;;;;;8.40;34.10;;;;;;5033033;28;19925;-72
2022/03/04 10:37:10;;;;;;;;;;;8.40;34.10;;;;;;5034724;28;20319;-73
2022/03/04 10:39:44;;;;;;;;;;;8.60;34.80;;;;;;5033281;28;19932;-72
2022/03/04 10:42:11;;;;;;;;;;;8.70;32.80;;;;;;5035162;28;19929;-71
2022/03/04 10:44:38;;;;;;;;;;;8.80;34.50;;;;;;5032586;28;20011;-71
2022/03/04 10:47:05;;;;;;;;;;;8.70;34.00;;;;;;5035192;28;19947;-72
2022/03/04 10:49:31;;;;;;;;;;;8.70;34.00;;;;;;5032894;28;19925;-72
2022/03/04 10:52:05;;;;;;;;;;;8.90;32.50;;;;;;5034271;28;20307;-72
2022/03/04 10:54:32;;;;;;;;;;;9.10;33.40;;;;;;5033381;28;20004;-72
2022/03/04 10:57:03;;;;;;;;;;;8.90;32.20;;;;;;5035441;28;20003;-72
2022/03/04 10:59:30;;;;;;;;;;;8.80;33.30;;;;;;5033358;28;19925;-72
2022/03/04 11:01:57;;;;;;;;;;;9.10;33.20;;;;;;5034882;28;19931;-72
2022/03/04 11:04:24;;;;;;;;;;;9.30;32.20;;;;;;5033039;28;19925;-72
2022/03/04 11:06:51;;;;;;;;;;;9.50;30.70;;;;;;5034555;28;19933;-73
2022/03/04 11:09:24;;;;;;;;;;;9.60;30.00;;;;;;5032872;28;19925;-72
2022/03/04 11:11:51;;;;;;;;;;;9.60;30.20;;;;;;5033188;28;19996;-73
2022/03/04 11:14:20;;;;;;;;;;;9.80;29.10;;;;;;5032350;28;20024;-73
2022/03/04 11:16:48;;;;;;;;;;;9.80;28.90;;;;;;5033915;28;20343;-73
2022/03/04 11:19:15;;;;;;;;;;;9.70;29.80;;;;;;5032462;28;20344;-72
2022/03/04 11:21:42;;;;;;;;;;;9.90;29.20;;;;;;5033815;28;19972;-71
2022/03/04 11:24:09;;;;;;;;;;;9.80;29.40;;;;;;5029638;28;19925;-73
2022/03/04 11:26:36;;;;;;;;;;;9.90;29.40;;;;;;5014409;28;20103;-73
2022/03/04 11:29:05;;;;;;;;;;;9.90;29.10;;;;;;5023843;28;19925;-73
2022/03/04 11:31:33;;;;;;;;;;;10.10;28.00;;;;;;5034351;28;20391;-73
2022/03/04 11:34:00;;;;;;;;;;;9.90;28.50;;;;;;5032352;28;19925;-72
2022/03/04 11:36:28;;;;;;;;;;;10.00;28.10;;;;;;5036670;28;19925;-72
2022/03/04 11:38:59;;;;;;;;;;;10.10;28.40;;;;;;5031908;28;19933;-72
2022/03/04 11:41:26;;;;;;;;;;;10.20;27.90;;;;;;5034961;28;19925;-72
2022/03/04 11:43:54;;;;;;;;;;;10.20;26.70;;;;;;5031654;28;20406;-72
2022/03/04 11:46:20;;;;;;;;;;;10.40;26.90;;;;;;5033531;28;19931;-72
2022/03/04 11:48:49;;;;;;;;;;;10.60;27.20;;;;;;5031440;28;20012;-72
2022/03/04 11:51:16;;;;;;;;;;;10.40;28.40;;;;;;5028974;28;19925;-73
2022/03/04 11:53:43;;;;;;;;;;;10.30;27.90;;;;;;5030277;28;20015;-73
2022/03/04 11:56:11;;;;;;;;;;;10.40;27.30;;;;;;5029155;28;19929;-71
2022/03/04 11:58:52;;;;;;;;;;;10.60;27.10;;;;;;5029148;28;19925;-71
2022/03/04 12:01:19;;;;;;;;;;;10.60;27.60;;;;;;5024358;28;19925;-71
2022/03/04 12:04:00;;;;;;;;;;;10.60;27.10;;;;;;5031818;28;20340;-72
2022/03/04 12:06:28;;;;;;;;;;;10.70;26.50;;;;;;5030361;28;19947;-73
2022/03/04 12:08:58;;;;;;;;;;;11.00;26.70;;;;;;5030730;28;19955;-72
2022/03/04 12:11:25;;;;;;;;;;;10.80;26.20;;;;;;5033023;28;20368;-72
2022/03/04 12:14:06;;;;;;;;;;;10.70;26.50;;;;;;5030475;28;20019;-72
2022/03/04 12:16:46;;;;;;;;;;;11.00;26.40;;;;;;5032141;28;19925;-72
2022/03/04 12:19:28;;;;;;;;;;;11.20;25.50;;;;;;5030594;28;19947;-72
2022/03/04 12:21:58;;;;;;;;;;;11.20;25.80;;;;;;5032876;28;19929;-72
2022/03/04 12:24:28;;;;;;;;;;;11.30;27.00;;;;;;5031115;28;19929;-72
2022/03/04 12:26:55;;;;;;;;;;;11.30;26.50;;;;;;5032774;28;19978;-72
2022/03/04 12:29:24;;;;;;;;;;;11.30;26.80;;;;;;5030239;28;19925;-72
2022/03/04 12:31:50;;;;;;;;;;;11.20;26.90;;;;;;5033017;28;19929;-72
2022/03/04 12:34:19;;;;;;;;;;;11.00;26.20;;;;;;5031608;28;19944;-72
2022/03/04 12:36:46;;;;;;;;;;;11.00;25.50;;;;;;5031784;28;19955;-73
2022/03/04 12:39:17;;;;;;;;;;;11.10;25.50;;;;;;5029713;28;19925;-73
2022/03/04 12:41:43;;;;;;;;;;;11.20;24.90;;;;;;5032573;28;19931;-72
2022/03/04 12:44:10;;;;;;;;;;;11.40;25.10;;;;;;5029514;28;20339;-72
2022/03/04 12:46:38;;;;;;;;;;;11.70;24.60;;;;;;5032443;28;20343;-73
2022/03/04 12:49:05;;;;;;;;;;;11.40;24.60;;;;;;5029488;28;19925;-72
2022/03/04 12:51:32;;;;;;;;;;;11.30;23.80;;;;;;5031946;28;20411;-72
2022/03/04 12:54:00;;;;;;;;;;;11.40;25.10;;;;;;5028664;28;20013;-72
2022/03/04 12:56:28;;;;;;;;;;;11.50;24.40;;;;;;5032249;28;19943;-72
2022/03/04 12:58:58;;;;;;;;;;;11.60;23.90;;;;;;5028356;28;19929;-73
2022/03/04 13:01:28;;;;;;;;;;;11.40;23.20;;;;;;5032228;28;19929;-72
2022/03/04 13:03:56;;;;;;;;;;;11.50;22.70;;;;;;5030710;28;20027;-72
2022/03/04 13:06:24;;;;;;;;;;;11.80;22.90;;;;;;5032083;28;19925;-71
2022/03/04 13:08:53;;;;;;;;;;;11.90;22.80;;;;;;5030659;28;19940;-71
2022/03/04 13:11:21;;;;;;;;;;;12.20;20.20;;;;;;5032218;28;20015;-72
2022/03/04 13:13:50;;;;;;;;;;;12.40;20.30;;;;;;5030375;28;20008;-71
2022/03/04 13:16:21;;;;;;;;;;;12.60;18.60;;;;;;5032159;28;19926;-72
2022/03/04 13:18:48;;;;;;;;;;;12.40;20.60;;;;;;5030405;28;19925;-72
2022/03/04 13:21:15;;;;;;;;;;;12.30;19.30;;;;;;5029405;28;19925;-71
2022/03/04 13:23:49;;;;;;;;;;;12.50;19.50;;;;;;5031208;28;19932;-71
2022/03/04 13:26:16;;;;;;;;;;;12.60;18.30;;;;;;5012629;28;19925;-71
2022/03/04 13:28:54;;;;;;;;;;;12.70;18.50;;;;;;5015972;28;19925;-72
2022/03/04 13:31:21;;;;;;;;;;;12.80;17.90;;;;;;5024082;28;19925;-72
2022/03/04 13:33:48;;;;;;;;;;;12.90;17.70;;;;;;5029174;28;20033;-72
2022/03/04 13:36:15;;;;;;;;;;;13.00;17.90;;;;;;5031785;28;19925;-72
2022/03/04 13:38:42;;;;;;;;;;;13.10;17.10;;;;;;5030228;28;19931;-72
2022/03/04 13:41:20;;;;;;;;;;;12.80;17.00;;;;;;5012092;28;20367;-71
2022/03/04 13:43:47;;;;;;;;;;;12.90;17.10;;;;;;5012615;28;19925;-72
2022/03/04 13:46:15;;;;;;;;;;;13.00;16.80;;;;;;5033123;28;19925;-72
2022/03/04 13:48:58;;;;;;;;;;;13.00;16.40;;;;;;5033575;28;20293;-72
2022/03/04 13:51:24;;;;;;;;;;;12.80;16.30;;;;;;5015819;28;19932;-71
2022/03/04 13:53:57;;;;;;;;;;;12.50;18.90;;;;;;5027626;28;20025;-71
2022/03/04 13:56:24;;;;;;;;;;;12.10;17.90;;;;;;5036088;28;19959;-72
2022/03/04 13:58:56;;;;;;;;;;;12.10;19.10;;;;;;5030919;28;20060;-71
2022/03/04 14:01:24;;;;;;;;;;;12.20;18.20;;;;;;5035039;28;19925;-72
2022/03/04 14:03:51;;;;;;;;;;;12.10;18.00;;;;;;5033759;28;22046;-73
2022/03/04 14:06:19;;;;;;;;;;;12.10;17.70;;;;;;5035938;28;19929;-71
2022/03/04 14:08:46;;;;;;;;;;;12.00;17.90;;;;;;5033291;28;19932;-71
2022/03/04 14:11:13;;;;;;;;;;;12.10;18.70;;;;;;5035548;28;20012;-71
2022/03/04 14:13:40;;;;;;;;;;;12.20;17.90;;;;;;5033550;28;19932;-71
2022/03/04 14:16:08;;;;;;;;;;;12.20;18.80;;;;;;5032483;28;19932;-71
2022/03/04 14:18:36;;;;;;;;;;;12.20;17.30;;;;;;5034384;28;19971;-71
2022/03/04 14:21:05;;;;;;;;;;;12.10;16.40;;;;;;5034685;28;20055;-72
2022/03/04 14:23:33;;;;;;;;;;;12.30;16.20;;;;;;5034636;28;19925;-74
2022/03/04 14:26:00;;;;;;;;;;;12.20;15.50;;;;;;5034124;28;19925;-72
2022/03/04 14:28:27;;;;;;;;;;;11.90;15.20;;;;;;5034578;28;19929;-72